Fort Bridger, Fort Bridger Airport (KFBR)

NameFort Bridger Airport
CityFort Bridger
CountryUnited States
ICAOKFBR
IATAFBR
Altitude2144 m
CoordinatesGoogle Map
Live Air TrafficLiveATC.net
METARKFBR 201002Z AUTO 33004KT 1/2SM FG OVC002 01/01 A2972 RMK AO2
2019-05-20 10:02:00 Wind: Northwest (330°) 2.06 m/s - Visibility: 3218.68 m - Weather: Fog - Temperature: 1 °C - Dew point: 1 °C - Humidity: 100% - Pressure: 1006.43 hPa
Statistics

The table below shows the detailed information of all flights to/from Fort Bridger, Fort Bridger Airport (KFBR).

Ident Aircraft Coming fromFrom Going toTo Owner nameOwnerSpotted durationDurationDate
N4371W - BE33 - Nordwind Airlines N4371W RAYTHEON 33 Bonanza BE33 Fort Bridger, United States (KFBR) KFBR
500 km
, United States (KVTN) KVTN
403 km
Goad Jerry A Goad Jerry A 00:12:27 00:12:27 Fri, 07 Jun 2019 23:01:19 +0000 7/6/2019 11:01 pm
Fri, 07 Jun 2019 23:13:46 +0000 7/6/2019 11:13 pm
N4371W - BE33 - Nordwind Airlines N4371W RAYTHEON 33 Bonanza BE33 Fort Bridger, United States (KFBR) KFBR
462 km
, United States (KVTN) KVTN
485 km
Goad Jerry A Goad Jerry A - - Fri, 07 Jun 2019 18:27:09 +0000 7/6/2019 6:27 pm
N4371W - BE33 - Nordwind Airlines N4371W RAYTHEON 33 Bonanza BE33 Fort Bridger, United States (KFBR) KFBR
488 km
, United States (KVTN) KVTN
419 km
Goad Jerry A Goad Jerry A 00:12:54 00:12:54 Fri, 31 May 2019 14:55:29 +0000 31/5/2019 2:55 pm
Fri, 31 May 2019 15:08:23 +0000 31/5/2019 3:08 pm